Newlead Avra — V7IK7 — position and weather

sailwx.info

Track history (hours):
 
Tides and Currents Weather Stations Pressure Air Temp Water Temp Dewpoint Dewpoint Depression Visibility Wind Speed Wind Dir Waves Ship Positions

Newlead Avra

Last reported at 2018-Jan-22 00:00 UTC. Time now 2018-Jan-22 16:08 UTC.
Position N 27°12' W 076°54'.

Length 234 m; draft 6 m.

Type: Ship (hazmat cat C). MMSI: 538002394.

Wind from 090 at 20 knots

Barometer 1020.0 mb
Air temperature 22.0 ° C
Visibility: greater than 5.4 NM
Water temperature 22.0 ° C

Date/timePositionNaut miles runAvg speedWind from/ knotsBaromVisibWave heightAir tempDewpointWater temp
2018-Jan-22 00:00N 27°12' W 076°54'   090 / 201020.0 5.4 22.0 22.0
2018-Jan-19 00:00N 09°36' W 079°36'86835.6 050 / 51013.0 5.4 25.0 26.0
2018-Jan-18 23:59N 09°40' W 079°42'918.3
2018-Jan-18 23:31N 09°34' W 079°48'918.2
2018-Jan-18 23:00N 09°27' W 079°54'611.6
2018-Jan-18 22:30N 09°21' W 079°55'4 7.6
2018-Jan-18 22:00N 09°17' W 079°55'1 1.1
2018-Jan-18 21:28N 09°16' W 079°55'0 0.6
2018-Jan-18 21:00N 09°16' W 079°55'0 0.5
2018-Jan-18 20:30N 09°16' W 079°55'0 0.3
2018-Jan-18 20:00N 09°16' W 079°55'1 1.5
2018-Jan-18 19:30N 09°15' W 079°55'3 5.3
2018-Jan-18 19:00N 09°13' W 079°56'0 0.1
2018-Jan-18 18:28N 09°13' W 079°56'0 0.1
2018-Jan-18 17:58N 09°13' W 079°56'0 0.1
2018-Jan-18 17:28N 09°13' W 079°56'0 0.1
2018-Jan-18 16:58N 09°13' W 079°56'0 0.2
2018-Jan-18 16:28N 09°13' W 079°56'1 1.3
2018-Jan-18 15:58N 09°12' W 079°56'0 0.1
2018-Jan-18 15:28N 09°12' W 079°56'0 0.2
2018-Jan-18 14:58N 09°12' W 079°56'0 0.4
2018-Jan-18 14:31N 09°12' W 079°56'3 5.0
2018-Jan-18 14:00N 09°12' W 079°53'  
Track history (hours):
 
Tides and Currents Weather Stations Pressure Air Temp Water Temp Dewpoint Dewpoint Depression Visibility Wind Speed Wind Dir Waves Ship Positions

Newlead Avra

Last reported at 2018-Jan-22 00:00 UTC. Time now 2018-Jan-22 16:08 UTC.
Position N 27°12' W 076°54'.

Length 234 m; draft 6 m.

Type: Ship (hazmat cat C). MMSI: 538002394.

Wind from 090 at 20 knots

Barometer 1020.0 mb
Air temperature 22.0 ° C
Visibility: greater than 5.4 NM
Water temperature 22.0 ° C

Date/timePositionNaut miles runAvg speedWind from/ knotsBaromVisibWave heightAir tempDewpointWater temp
2018-Jan-22 00:00N 27°12' W 076°54'   090 / 201020.0 5.4 22.0 22.0
2018-Jan-19 00:00N 09°36' W 079°36'86835.6 050 / 51013.0 5.4 25.0 26.0
2018-Jan-18 23:59N 09°40' W 079°42'918.3
2018-Jan-18 23:31N 09°34' W 079°48'918.2
2018-Jan-18 23:00N 09°27' W 079°54'611.6
2018-Jan-18 22:30N 09°21' W 079°55'4 7.6
2018-Jan-18 22:00N 09°17' W 079°55'1 1.1
2018-Jan-18 21:28N 09°16' W 079°55'0 0.6
2018-Jan-18 21:00N 09°16' W 079°55'0 0.5
2018-Jan-18 20:30N 09°16' W 079°55'0 0.3
2018-Jan-18 20:00N 09°16' W 079°55'1 1.5
2018-Jan-18 19:30N 09°15' W 079°55'3 5.3
2018-Jan-18 19:00N 09°13' W 079°56'0 0.1
2018-Jan-18 18:28N 09°13' W 079°56'0 0.1
2018-Jan-18 17:58N 09°13' W 079°56'0 0.1
2018-Jan-18 17:28N 09°13' W 079°56'0 0.1
2018-Jan-18 16:58N 09°13' W 079°56'0 0.2
2018-Jan-18 16:28N 09°13' W 079°56'1 1.3
2018-Jan-18 15:58N 09°12' W 079°56'0 0.1
2018-Jan-18 15:28N 09°12' W 079°56'0 0.2
2018-Jan-18 14:58N 09°12' W 079°56'0 0.4
2018-Jan-18 14:31N 09°12' W 079°56'3 5.0
2018-Jan-18 14:00N 09°12' W 079°53'  

Dump ship's entire track history